sensor_id;sensor_type;location;lat;lon;timestamp;P1;durP1;ratioP1;P2;durP2;ratioP2
53674;SDS011;39574;50.534;8.500;2022-12-17T00:02:26;28.8;;;14.3;;
53674;SDS011;39574;50.534;8.500;2022-12-17T00:07:24;26.8;;;13.4;;
53674;SDS011;39574;50.534;8.500;2022-12-17T00:12:22;27.4;;;13.2;;
53674;SDS011;39574;50.534;8.500;2022-12-17T00:17:21;26.3;;;13.1;;
53674;SDS011;39574;50.534;8.500;2022-12-17T00:22:19;25.1;;;12.6;;
53674;SDS011;39574;50.534;8.500;2022-12-17T00:27:17;24.8;;;12.9;;
53674;SDS011;39574;50.534;8.500;2022-12-17T00:32:15;25.1;;;13.2;;
53674;SDS011;39574;50.534;8.500;2022-12-17T00:37:13;26.0;;;13.1;;
53674;SDS011;39574;50.534;8.500;2022-12-17T00:42:12;25.8;;;12.9;;
53674;SDS011;39574;50.534;8.500;2022-12-17T00:47:10;28.1;;;13.5;;
53674;SDS011;39574;50.534;8.500;2022-12-17T00:52:08;67.1;;;28.0;;
53674;SDS011;39574;50.534;8.500;2022-12-17T00:57:06;65.3;;;27.3;;
53674;SDS011;39574;50.534;8.500;2022-12-17T01:02:04;60.8;;;26.4;;
53674;SDS011;39574;50.534;8.500;2022-12-17T01:16:59;48.0;;;22.1;;
53674;SDS011;39574;50.534;8.500;2022-12-17T01:21:58;33.0;;;16.8;;
53674;SDS011;39574;50.534;8.500;2022-12-17T01:26:55;30.1;;;15.8;;
53674;SDS011;39574;50.534;8.500;2022-12-17T01:31:54;28.7;;;15.2;;
53674;SDS011;39574;50.534;8.500;2022-12-17T01:36:52;34.8;;;17.1;;
53674;SDS011;39574;50.534;8.500;2022-12-17T01:41:50;33.2;;;16.4;;
53674;SDS011;39574;50.534;8.500;2022-12-17T01:46:49;37.3;;;17.0;;
53674;SDS011;39574;50.534;8.500;2022-12-17T01:51:46;34.9;;;16.6;;
53674;SDS011;39574;50.534;8.500;2022-12-17T01:56:45;33.9;;;16.6;;
53674;SDS011;39574;50.534;8.500;2022-12-17T02:01:43;36.9;;;18.1;;
53674;SDS011;39574;50.534;8.500;2022-12-17T02:06:42;35.2;;;17.1;;
53674;SDS011;39574;50.534;8.500;2022-12-17T02:11:41;31.1;;;15.0;;
53674;SDS011;39574;50.534;8.500;2022-12-17T02:16:40;27.5;;;13.7;;
53674;SDS011;39574;50.534;8.500;2022-12-17T02:21:36;25.5;;;13.1;;
53674;SDS011;39574;50.534;8.500;2022-12-17T02:26:34;25.0;;;13.1;;
53674;SDS011;39574;50.534;8.500;2022-12-17T02:36:32;26.7;;;13.5;;
53674;SDS011;39574;50.534;8.500;2022-12-17T02:41:30;26.8;;;13.0;;
53674;SDS011;39574;50.534;8.500;2022-12-17T02:46:27;27.9;;;13.1;;
53674;SDS011;39574;50.534;8.500;2022-12-17T02:51:25;27.1;;;13.2;;
53674;SDS011;39574;50.534;8.500;2022-12-17T02:56:23;27.9;;;13.4;;
53674;SDS011;39574;50.534;8.500;2022-12-17T03:01:21;30.1;;;14.5;;
53674;SDS011;39574;50.534;8.500;2022-12-17T03:06:20;30.9;;;14.6;;
53674;SDS011;39574;50.534;8.500;2022-12-17T03:11:18;30.9;;;14.5;;
53674;SDS011;39574;50.534;8.500;2022-12-17T03:16:16;30.0;;;13.9;;
53674;SDS011;39574;50.534;8.500;2022-12-17T03:26:12;30.4;;;14.1;;
53674;SDS011;39574;50.534;8.500;2022-12-17T03:31:11;31.8;;;14.2;;
53674;SDS011;39574;50.534;8.500;2022-12-17T03:46:09;37.7;;;15.9;;
53674;SDS011;39574;50.534;8.500;2022-12-17T03:51:04;41.0;;;16.9;;
53674;SDS011;39574;50.534;8.500;2022-12-17T03:56:02;43.3;;;18.3;;
53674;SDS011;39574;50.534;8.500;2022-12-17T04:01:00;47.2;;;19.2;;
53674;SDS011;39574;50.534;8.500;2022-12-17T04:05:58;45.6;;;18.9;;
53674;SDS011;39574;50.534;8.500;2022-12-17T04:10:57;46.7;;;19.3;;
53674;SDS011;39574;50.534;8.500;2022-12-17T04:15:55;45.2;;;19.3;;
53674;SDS011;39574;50.534;8.500;2022-12-17T04:20:53;44.3;;;19.4;;
53674;SDS011;39574;50.534;8.500;2022-12-17T04:25:52;45.7;;;19.7;;
53674;SDS011;39574;50.534;8.500;2022-12-17T04:30:50;46.0;;;19.3;;
53674;SDS011;39574;50.534;8.500;2022-12-17T04:35:48;45.5;;;19.3;;
53674;SDS011;39574;50.534;8.500;2022-12-17T04:40:46;45.4;;;18.9;;
53674;SDS011;39574;50.534;8.500;2022-12-17T04:45:47;46.0;;;19.0;;
53674;SDS011;39574;50.534;8.500;2022-12-17T04:50:43;45.2;;;19.0;;
53674;SDS011;39574;50.534;8.500;2022-12-17T04:55:41;44.1;;;18.3;;
53674;SDS011;39574;50.534;8.500;2022-12-17T05:00:39;43.8;;;18.5;;
53674;SDS011;39574;50.534;8.500;2022-12-17T05:05:38;47.6;;;19.1;;
53674;SDS011;39574;50.534;8.500;2022-12-17T05:10:36;47.9;;;19.1;;
53674;SDS011;39574;50.534;8.500;2022-12-17T05:15:34;48.3;;;19.6;;
53674;SDS011;39574;50.534;8.500;2022-12-17T05:20:32;48.0;;;20.1;;
53674;SDS011;39574;50.534;8.500;2022-12-17T05:25:31;49.0;;;20.1;;
53674;SDS011;39574;50.534;8.500;2022-12-17T05:30:29;47.4;;;19.5;;
53674;SDS011;39574;50.534;8.500;2022-12-17T05:35:27;46.8;;;18.9;;
53674;SDS011;39574;50.534;8.500;2022-12-17T05:40:25;47.1;;;18.8;;
53674;SDS011;39574;50.534;8.500;2022-12-17T05:45:24;45.7;;;19.1;;
53674;SDS011;39574;50.534;8.500;2022-12-17T05:55:20;45.4;;;19.2;;
53674;SDS011;39574;50.534;8.500;2022-12-17T06:05:17;47.8;;;20.0;;
53674;SDS011;39574;50.534;8.500;2022-12-17T06:10:15;49.3;;;20.9;;
53674;SDS011;39574;50.534;8.500;2022-12-17T06:25:10;51.4;;;21.6;;
53674;SDS011;39574;50.534;8.500;2022-12-17T06:30:09;56.1;;;21.5;;
53674;SDS011;39574;50.534;8.500;2022-12-17T06:35:07;60.0;;;23.4;;
53674;SDS011;39574;50.534;8.500;2022-12-17T06:40:05;60.4;;;23.0;;
53674;SDS011;39574;50.534;8.500;2022-12-17T06:45:04;54.0;;;20.6;;
53674;SDS011;39574;50.534;8.500;2022-12-17T06:50:02;50.3;;;18.3;;
53674;SDS011;39574;50.534;8.500;2022-12-17T06:55:00;62.1;;;18.3;;
53674;SDS011;39574;50.534;8.500;2022-12-17T06:59:58;59.1;;;18.0;;
53674;SDS011;39574;50.534;8.500;2022-12-17T07:04:57;53.4;;;17.3;;
53674;SDS011;39574;50.534;8.500;2022-12-17T07:24:51;44.8;;;16.0;;
53674;SDS011;39574;50.534;8.500;2022-12-17T07:29:48;39.3;;;15.5;;
53674;SDS011;39574;50.534;8.500;2022-12-17T07:34:46;35.5;;;14.8;;
53674;SDS011;39574;50.534;8.500;2022-12-17T07:39:45;36.8;;;15.4;;
53674;SDS011;39574;50.534;8.500;2022-12-17T07:54:40;36.7;;;15.1;;
53674;SDS011;39574;50.534;8.500;2022-12-17T08:09:35;37.8;;;15.4;;
53674;SDS011;39574;50.534;8.500;2022-12-17T08:14:33;39.1;;;15.5;;
53674;SDS011;39574;50.534;8.500;2022-12-17T08:19:31;36.6;;;14.7;;
53674;SDS011;39574;50.534;8.500;2022-12-17T08:24:29;37.1;;;15.2;;
53674;SDS011;39574;50.534;8.500;2022-12-17T08:29:27;46.6;;;17.1;;
53674;SDS011;39574;50.534;8.500;2022-12-17T08:34:26;53.8;;;17.7;;
53674;SDS011;39574;50.534;8.500;2022-12-17T08:39:24;49.5;;;16.9;;
53674;SDS011;39574;50.534;8.500;2022-12-17T08:44:22;53.3;;;17.4;;
53674;SDS011;39574;50.534;8.500;2022-12-17T08:49:20;44.5;;;16.3;;
53674;SDS011;39574;50.534;8.500;2022-12-17T08:54:19;41.4;;;16.3;;
53674;SDS011;39574;50.534;8.500;2022-12-17T08:59:17;41.8;;;15.5;;
53674;SDS011;39574;50.534;8.500;2022-12-17T09:04:16;57.7;;;16.4;;
53674;SDS011;39574;50.534;8.500;2022-12-17T09:09:14;49.1;;;15.1;;
53674;SDS011;39574;50.534;8.500;2022-12-17T09:14:12;42.8;;;14.3;;
53674;SDS011;39574;50.534;8.500;2022-12-17T09:19:10;74.5;;;16.7;;
53674;SDS011;39574;50.534;8.500;2022-12-17T09:24:09;62.9;;;15.9;;
53674;SDS011;39574;50.534;8.500;2022-12-17T09:29:07;54.0;;;15.5;;
53674;SDS011;39574;50.534;8.500;2022-12-17T09:34:05;43.6;;;14.8;;
53674;SDS011;39574;50.534;8.500;2022-12-17T09:39:04;32.1;;;13.7;;
53674;SDS011;39574;50.534;8.500;2022-12-17T09:44:03;30.9;;;13.9;;
53674;SDS011;39574;50.534;8.500;2022-12-17T09:49:01;30.4;;;13.7;;
53674;SDS011;39574;50.534;8.500;2022-12-17T09:53:59;29.1;;;13.5;;
53674;SDS011;39574;50.534;8.500;2022-12-17T09:58:57;28.5;;;13.3;;
53674;SDS011;39574;50.534;8.500;2022-12-17T10:03:55;27.4;;;12.8;;
53674;SDS011;39574;50.534;8.500;2022-12-17T10:08:54;25.8;;;12.2;;
53674;SDS011;39574;50.534;8.500;2022-12-17T10:13:52;25.9;;;11.9;;
53674;SDS011;39574;50.534;8.500;2022-12-17T10:18:50;27.5;;;12.4;;
53674;SDS011;39574;50.534;8.500;2022-12-17T10:23:48;28.1;;;12.9;;
53674;SDS011;39574;50.534;8.500;2022-12-17T10:28:47;30.8;;;13.7;;
53674;SDS011;39574;50.534;8.500;2022-12-17T10:33:45;33.7;;;15.2;;
53674;SDS011;39574;50.534;8.500;2022-12-17T10:38:43;37.3;;;16.3;;
53674;SDS011;39574;50.534;8.500;2022-12-17T10:43:42;40.8;;;17.2;;
53674;SDS011;39574;50.534;8.500;2022-12-17T10:48:40;43.6;;;18.6;;
53674;SDS011;39574;50.534;8.500;2022-12-17T10:53:38;42.2;;;18.7;;
53674;SDS011;39574;50.534;8.500;2022-12-17T10:58:41;44.0;;;19.9;;
53674;SDS011;39574;50.534;8.500;2022-12-17T11:03:37;49.4;;;22.3;;
53674;SDS011;39574;50.534;8.500;2022-12-17T11:08:33;52.3;;;22.9;;
53674;SDS011;39574;50.534;8.500;2022-12-17T11:13:32;51.0;;;21.8;;
53674;SDS011;39574;50.534;8.500;2022-12-17T11:18:32;50.5;;;21.4;;
53674;SDS011;39574;50.534;8.500;2022-12-17T11:23:28;46.5;;;20.6;;
53674;SDS011;39574;50.534;8.500;2022-12-17T11:28:27;54.8;;;23.9;;
53674;SDS011;39574;50.534;8.500;2022-12-17T11:33:26;55.1;;;23.6;;
53674;SDS011;39574;50.534;8.500;2022-12-17T11:38:28;52.4;;;23.0;;
53674;SDS011;39574;50.534;8.500;2022-12-17T11:43:23;48.3;;;21.3;;
53674;SDS011;39574;50.534;8.500;2022-12-17T11:48:20;45.4;;;20.4;;
53674;SDS011;39574;50.534;8.500;2022-12-17T11:53:23;45.5;;;20.1;;
53674;SDS011;39574;50.534;8.500;2022-12-17T11:58:17;44.9;;;19.4;;
53674;SDS011;39574;50.534;8.500;2022-12-17T12:03:19;45.2;;;19.2;;
53674;SDS011;39574;50.534;8.500;2022-12-17T12:08:15;43.9;;;18.8;;
53674;SDS011;39574;50.534;8.500;2022-12-17T12:13:13;44.4;;;19.7;;
53674;SDS011;39574;50.534;8.500;2022-12-17T12:18:14;42.7;;;19.4;;
53674;SDS011;39574;50.534;8.500;2022-12-17T12:23:10;42.4;;;19.2;;
53674;SDS011;39574;50.534;8.500;2022-12-17T12:28:09;44.2;;;19.6;;
53674;SDS011;39574;50.534;8.500;2022-12-17T12:33:07;44.0;;;19.2;;
53674;SDS011;39574;50.534;8.500;2022-12-17T12:38:03;46.5;;;19.4;;
53674;SDS011;39574;50.534;8.500;2022-12-17T12:43:02;45.3;;;19.6;;
53674;SDS011;39574;50.534;8.500;2022-12-17T12:48:01;44.9;;;20.1;;
53674;SDS011;39574;50.534;8.500;2022-12-17T12:52:58;46.6;;;20.4;;
53674;SDS011;39574;50.534;8.500;2022-12-17T12:57:57;53.7;;;24.8;;
53674;SDS011;39574;50.534;8.500;2022-12-17T13:03:04;51.0;;;23.7;;
53674;SDS011;39574;50.534;8.500;2022-12-17T13:07:59;49.5;;;23.1;;
53674;SDS011;39574;50.534;8.500;2022-12-17T13:12:52;50.3;;;23.4;;
53674;SDS011;39574;50.534;8.500;2022-12-17T13:17:54;51.1;;;23.8;;
53674;SDS011;39574;50.534;8.500;2022-12-17T13:22:49;53.2;;;24.6;;
53674;SDS011;39574;50.534;8.500;2022-12-17T13:27:47;53.5;;;24.2;;
53674;SDS011;39574;50.534;8.500;2022-12-17T13:37:45;51.5;;;23.5;;
53674;SDS011;39574;50.534;8.500;2022-12-17T13:42:43;51.8;;;23.5;;
53674;SDS011;39574;50.534;8.500;2022-12-17T13:47:41;50.3;;;22.9;;
53674;SDS011;39574;50.534;8.500;2022-12-17T13:52:39;48.8;;;22.7;;
53674;SDS011;39574;50.534;8.500;2022-12-17T13:57:37;48.2;;;22.6;;
53674;SDS011;39574;50.534;8.500;2022-12-17T14:02:40;47.9;;;22.4;;
53674;SDS011;39574;50.534;8.500;2022-12-17T14:07:37;47.7;;;22.3;;
53674;SDS011;39574;50.534;8.500;2022-12-17T14:12:33;48.4;;;22.6;;
53674;SDS011;39574;50.534;8.500;2022-12-17T14:17:34;47.5;;;22.3;;
53674;SDS011;39574;50.534;8.500;2022-12-17T14:22:31;48.6;;;22.5;;
53674;SDS011;39574;50.534;8.500;2022-12-17T14:27:30;49.4;;;23.0;;
53674;SDS011;39574;50.534;8.500;2022-12-17T14:32:29;49.9;;;23.6;;
53674;SDS011;39574;50.534;8.500;2022-12-17T14:37:24;51.1;;;24.1;;
53674;SDS011;39574;50.534;8.500;2022-12-17T14:42:23;50.1;;;23.5;;
53674;SDS011;39574;50.534;8.500;2022-12-17T14:47:22;50.5;;;22.8;;
53674;SDS011;39574;50.534;8.500;2022-12-17T14:52:22;51.1;;;22.9;;
53674;SDS011;39574;50.534;8.500;2022-12-17T15:02:18;49.6;;;22.5;;
53674;SDS011;39574;50.534;8.500;2022-12-17T15:07:16;48.7;;;22.1;;
53674;SDS011;39574;50.534;8.500;2022-12-17T15:12:13;46.4;;;21.7;;
53674;SDS011;39574;50.534;8.500;2022-12-17T15:17:11;46.7;;;21.2;;
53674;SDS011;39574;50.534;8.500;2022-12-17T15:22:12;48.7;;;21.2;;
53674;SDS011;39574;50.534;8.500;2022-12-17T15:27:10;49.7;;;21.8;;
53674;SDS011;39574;50.534;8.500;2022-12-17T15:32:06;51.4;;;22.6;;
53674;SDS011;39574;50.534;8.500;2022-12-17T15:37:04;49.5;;;22.6;;
53674;SDS011;39574;50.534;8.500;2022-12-17T15:42:03;48.5;;;22.4;;
53674;SDS011;39574;50.534;8.500;2022-12-17T15:51:59;48.8;;;22.4;;
53674;SDS011;39574;50.534;8.500;2022-12-17T15:56:58;48.1;;;21.7;;
53674;SDS011;39574;50.534;8.500;2022-12-17T16:01:56;48.6;;;21.7;;
53674;SDS011;39574;50.534;8.500;2022-12-17T16:06:55;46.7;;;21.0;;
53674;SDS011;39574;50.534;8.500;2022-12-17T16:11:53;44.4;;;20.4;;
53674;SDS011;39574;50.534;8.500;2022-12-17T16:16:52;43.4;;;19.8;;
53674;SDS011;39574;50.534;8.500;2022-12-17T16:21:50;44.9;;;20.0;;
53674;SDS011;39574;50.534;8.500;2022-12-17T16:26:48;48.0;;;20.8;;
53674;SDS011;39574;50.534;8.500;2022-12-17T16:31:47;49.9;;;21.8;;
53674;SDS011;39574;50.534;8.500;2022-12-17T16:36:45;49.2;;;21.9;;
53674;SDS011;39574;50.534;8.500;2022-12-17T16:41:43;49.5;;;21.5;;
53674;SDS011;39574;50.534;8.500;2022-12-17T16:46:42;48.8;;;22.0;;
53674;SDS011;39574;50.534;8.500;2022-12-17T16:51:40;51.6;;;22.5;;
53674;SDS011;39574;50.534;8.500;2022-12-17T16:56:38;50.1;;;22.1;;
53674;SDS011;39574;50.534;8.500;2022-12-17T17:01:37;49.0;;;22.0;;
53674;SDS011;39574;50.534;8.500;2022-12-17T17:06:36;48.4;;;22.1;;
53674;SDS011;39574;50.534;8.500;2022-12-17T17:11:33;51.8;;;23.2;;
53674;SDS011;39574;50.534;8.500;2022-12-17T17:16:32;54.8;;;23.7;;
53674;SDS011;39574;50.534;8.500;2022-12-17T17:21:30;55.5;;;23.9;;
53674;SDS011;39574;50.534;8.500;2022-12-17T17:26:29;54.6;;;24.1;;
53674;SDS011;39574;50.534;8.500;2022-12-17T17:31:27;50.5;;;22.5;;
53674;SDS011;39574;50.534;8.500;2022-12-17T17:36:25;58.9;;;26.1;;
53674;SDS011;39574;50.534;8.500;2022-12-17T17:41:24;55.8;;;24.9;;
53674;SDS011;39574;50.534;8.500;2022-12-17T17:46:22;52.4;;;23.2;;
53674;SDS011;39574;50.534;8.500;2022-12-17T17:51:21;65.9;;;26.6;;
53674;SDS011;39574;50.534;8.500;2022-12-17T17:56:19;65.1;;;26.5;;
53674;SDS011;39574;50.534;8.500;2022-12-17T18:01:18;59.7;;;25.0;;
53674;SDS011;39574;50.534;8.500;2022-12-17T18:06:15;57.8;;;24.9;;
53674;SDS011;39574;50.534;8.500;2022-12-17T18:11:14;51.7;;;22.8;;
53674;SDS011;39574;50.534;8.500;2022-12-17T18:16:11;47.2;;;21.4;;
53674;SDS011;39574;50.534;8.500;2022-12-17T18:21:11;50.2;;;22.3;;
53674;SDS011;39574;50.534;8.500;2022-12-17T18:26:09;51.8;;;23.6;;
53674;SDS011;39574;50.534;8.500;2022-12-17T18:31:07;52.2;;;23.6;;
53674;SDS011;39574;50.534;8.500;2022-12-17T18:36:06;52.9;;;24.0;;
53674;SDS011;39574;50.534;8.500;2022-12-17T18:41:04;49.6;;;22.4;;
53674;SDS011;39574;50.534;8.500;2022-12-17T18:46:02;60.4;;;27.0;;
53674;SDS011;39574;50.534;8.500;2022-12-17T18:51:02;59.6;;;26.6;;
53674;SDS011;39574;50.534;8.500;2022-12-17T18:56:02;62.8;;;27.8;;
53674;SDS011;39574;50.534;8.500;2022-12-17T19:00:56;57.9;;;25.5;;
53674;SDS011;39574;50.534;8.500;2022-12-17T19:05:54;54.0;;;22.9;;
53674;SDS011;39574;50.534;8.500;2022-12-17T19:10:53;51.8;;;21.9;;
53674;SDS011;39574;50.534;8.500;2022-12-17T19:15:51;47.5;;;20.2;;
53674;SDS011;39574;50.534;8.500;2022-12-17T19:20:55;46.3;;;19.5;;
53674;SDS011;39574;50.534;8.500;2022-12-17T19:25:48;47.5;;;19.8;;
53674;SDS011;39574;50.534;8.500;2022-12-17T19:30:46;47.7;;;19.6;;
53674;SDS011;39574;50.534;8.500;2022-12-17T19:35:44;54.2;;;24.0;;
53674;SDS011;39574;50.534;8.500;2022-12-17T19:40:43;53.7;;;24.3;;
53674;SDS011;39574;50.534;8.500;2022-12-17T19:45:41;50.6;;;22.7;;
53674;SDS011;39574;50.534;8.500;2022-12-17T19:50:39;47.7;;;21.3;;
53674;SDS011;39574;50.534;8.500;2022-12-17T19:55:38;45.5;;;19.9;;
53674;SDS011;39574;50.534;8.500;2022-12-17T20:00:36;45.2;;;19.8;;
53674;SDS011;39574;50.534;8.500;2022-12-17T20:05:34;45.8;;;20.0;;
53674;SDS011;39574;50.534;8.500;2022-12-17T20:10:32;46.0;;;19.7;;
53674;SDS011;39574;50.534;8.500;2022-12-17T20:15:31;47.5;;;20.1;;
53674;SDS011;39574;50.534;8.500;2022-12-17T20:20:29;47.3;;;19.8;;
53674;SDS011;39574;50.534;8.500;2022-12-17T20:25:27;48.1;;;20.6;;
53674;SDS011;39574;50.534;8.500;2022-12-17T20:30:26;46.3;;;20.1;;
53674;SDS011;39574;50.534;8.500;2022-12-17T20:35:24;48.2;;;20.3;;
53674;SDS011;39574;50.534;8.500;2022-12-17T20:40:22;46.7;;;20.2;;
53674;SDS011;39574;50.534;8.500;2022-12-17T20:45:21;44.6;;;19.3;;
53674;SDS011;39574;50.534;8.500;2022-12-17T20:50:20;47.4;;;20.9;;
53674;SDS011;39574;50.534;8.500;2022-12-17T20:55:17;49.3;;;22.0;;
53674;SDS011;39574;50.534;8.500;2022-12-17T21:00:16;48.2;;;20.9;;
53674;SDS011;39574;50.534;8.500;2022-12-17T21:05:14;47.6;;;20.1;;
53674;SDS011;39574;50.534;8.500;2022-12-17T21:10:12;48.3;;;20.2;;
53674;SDS011;39574;50.534;8.500;2022-12-17T21:15:11;50.2;;;21.2;;
53674;SDS011;39574;50.534;8.500;2022-12-17T21:20:09;61.4;;;26.8;;
53674;SDS011;39574;50.534;8.500;2022-12-17T21:25:07;56.4;;;24.7;;
53674;SDS011;39574;50.534;8.500;2022-12-17T21:30:06;51.3;;;22.6;;
53674;SDS011;39574;50.534;8.500;2022-12-17T21:35:04;52.2;;;23.4;;
53674;SDS011;39574;50.534;8.500;2022-12-17T21:40:02;47.4;;;21.6;;
53674;SDS011;39574;50.534;8.500;2022-12-17T21:45:00;45.5;;;20.8;;
53674;SDS011;39574;50.534;8.500;2022-12-17T21:49:59;47.4;;;22.0;;
53674;SDS011;39574;50.534;8.500;2022-12-17T21:54:57;48.1;;;22.2;;
53674;SDS011;39574;50.534;8.500;2022-12-17T21:59:55;50.3;;;22.8;;
53674;SDS011;39574;50.534;8.500;2022-12-17T22:04:54;51.6;;;22.2;;
53674;SDS011;39574;50.534;8.500;2022-12-17T22:09:52;51.2;;;21.2;;
53674;SDS011;39574;50.534;8.500;2022-12-17T22:14:50;50.6;;;20.8;;
53674;SDS011;39574;50.534;8.500;2022-12-17T22:19:48;48.8;;;20.1;;
53674;SDS011;39574;50.534;8.500;2022-12-17T22:24:47;47.8;;;20.1;;
53674;SDS011;39574;50.534;8.500;2022-12-17T22:29:45;46.3;;;19.9;;
53674;SDS011;39574;50.534;8.500;2022-12-17T22:34:44;44.9;;;19.4;;
53674;SDS011;39574;50.534;8.500;2022-12-17T22:39:42;44.6;;;19.3;;
53674;SDS011;39574;50.534;8.500;2022-12-17T22:44:40;46.5;;;19.3;;
53674;SDS011;39574;50.534;8.500;2022-12-17T22:49:38;46.3;;;19.3;;
53674;SDS011;39574;50.534;8.500;2022-12-17T22:54:37;45.8;;;19.0;;
53674;SDS011;39574;50.534;8.500;2022-12-17T22:59:35;45.5;;;18.6;;
53674;SDS011;39574;50.534;8.500;2022-12-17T23:04:33;45.7;;;19.0;;
53674;SDS011;39574;50.534;8.500;2022-12-17T23:09:31;44.9;;;19.0;;
53674;SDS011;39574;50.534;8.500;2022-12-17T23:14:30;43.9;;;18.7;;
53674;SDS011;39574;50.534;8.500;2022-12-17T23:19:28;44.1;;;18.5;;
53674;SDS011;39574;50.534;8.500;2022-12-17T23:24:26;42.5;;;18.0;;
53674;SDS011;39574;50.534;8.500;2022-12-17T23:29:24;43.7;;;17.8;;
53674;SDS011;39574;50.534;8.500;2022-12-17T23:34:23;44.2;;;18.1;;
53674;SDS011;39574;50.534;8.500;2022-12-17T23:39:21;43.9;;;18.2;;
53674;SDS011;39574;50.534;8.500;2022-12-17T23:44:19;43.9;;;18.2;;
53674;SDS011;39574;50.534;8.500;2022-12-17T23:49:18;44.9;;;18.5;;
53674;SDS011;39574;50.534;8.500;2022-12-17T23:54:16;45.9;;;18.7;;
53674;SDS011;39574;50.534;8.500;2022-12-17T23:59:14;46.1;;;18.5;;
